sensor_id;sensor_type;location;lat;lon;timestamp;P1;durP1;ratioP1;P2;durP2;ratioP2
72951;SDS011;61102;51.956;5.878;2023-04-06T00:00:32;4.05;;;1.38;;
72951;SDS011;61102;51.956;5.878;2023-04-06T00:02:58;4.00;;;1.10;;
72951;SDS011;61102;51.956;5.878;2023-04-06T00:05:27;3.85;;;1.40;;
72951;SDS011;61102;51.956;5.878;2023-04-06T00:08:02;3.47;;;1.10;;
72951;SDS011;61102;51.956;5.878;2023-04-06T00:10:31;4.32;;;1.30;;
72951;SDS011;61102;51.956;5.878;2023-04-06T00:12:58;4.07;;;1.20;;
72951;SDS011;61102;51.956;5.878;2023-04-06T00:15:25;4.05;;;1.20;;
72951;SDS011;61102;51.956;5.878;2023-04-06T00:17:51;4.25;;;1.48;;
72951;SDS011;61102;51.956;5.878;2023-04-06T00:20:20;4.18;;;1.10;;
72951;SDS011;61102;51.956;5.878;2023-04-06T00:22:46;4.13;;;1.13;;
72951;SDS011;61102;51.956;5.878;2023-04-06T00:25:12;4.35;;;1.10;;
72951;SDS011;61102;51.956;5.878;2023-04-06T00:27:40;5.65;;;1.80;;
72951;SDS011;61102;51.956;5.878;2023-04-06T00:30:07;4.25;;;1.30;;
72951;SDS011;61102;51.956;5.878;2023-04-06T00:32:34;4.85;;;1.30;;
72951;SDS011;61102;51.956;5.878;2023-04-06T00:35:02;4.85;;;1.30;;
72951;SDS011;61102;51.956;5.878;2023-04-06T00:37:28;4.82;;;1.30;;
72951;SDS011;61102;51.956;5.878;2023-04-06T00:39:55;4.40;;;1.27;;
72951;SDS011;61102;51.956;5.878;2023-04-06T00:42:21;4.22;;;1.50;;
72951;SDS011;61102;51.956;5.878;2023-04-06T00:44:55;5.03;;;1.30;;
72951;SDS011;61102;51.956;5.878;2023-04-06T00:47:22;3.47;;;1.05;;
72951;SDS011;61102;51.956;5.878;2023-04-06T00:49:51;3.78;;;1.10;;
72951;SDS011;61102;51.956;5.878;2023-04-06T00:52:17;4.88;;;1.30;;
72951;SDS011;61102;51.956;5.878;2023-04-06T00:54:46;4.07;;;1.20;;
72951;SDS011;61102;51.956;5.878;2023-04-06T00:57:14;4.22;;;1.23;;
72951;SDS011;61102;51.956;5.878;2023-04-06T00:59:42;5.10;;;1.30;;
72951;SDS011;61102;51.956;5.878;2023-04-06T01:02:11;4.85;;;1.40;;
72951;SDS011;61102;51.956;5.878;2023-04-06T01:04:43;4.43;;;1.20;;
72951;SDS011;61102;51.956;5.878;2023-04-06T01:07:18;4.43;;;1.38;;
72951;SDS011;61102;51.956;5.878;2023-04-06T01:10:00;4.07;;;1.30;;
72951;SDS011;61102;51.956;5.878;2023-04-06T01:12:28;4.10;;;1.15;;
72951;SDS011;61102;51.956;5.878;2023-04-06T01:14:56;4.05;;;1.13;;
72951;SDS011;61102;51.956;5.878;2023-04-06T01:17:22;4.00;;;1.27;;
72951;SDS011;61102;51.956;5.878;2023-04-06T01:19:50;4.30;;;1.40;;
72951;SDS011;61102;51.956;5.878;2023-04-06T01:22:25;3.83;;;1.23;;
72951;SDS011;61102;51.956;5.878;2023-04-06T01:24:57;3.60;;;1.05;;
72951;SDS011;61102;51.956;5.878;2023-04-06T01:27:32;3.92;;;1.23;;
72951;SDS011;61102;51.956;5.878;2023-04-06T01:30:01;4.05;;;1.20;;
72951;SDS011;61102;51.956;5.878;2023-04-06T01:32:47;4.80;;;1.45;;
72951;SDS011;61102;51.956;5.878;2023-04-06T01:35:17;4.40;;;1.38;;
72951;SDS011;61102;51.956;5.878;2023-04-06T01:37:56;4.57;;;1.25;;
72951;SDS011;61102;51.956;5.878;2023-04-06T01:40:28;4.15;;;1.35;;
72951;SDS011;61102;51.956;5.878;2023-04-06T01:42:55;4.25;;;1.30;;
72951;SDS011;61102;51.956;5.878;2023-04-06T01:45:29;4.95;;;1.50;;
72951;SDS011;61102;51.956;5.878;2023-04-06T01:48:02;5.03;;;1.48;;
72951;SDS011;61102;51.956;5.878;2023-04-06T01:50:29;3.97;;;1.27;;
72951;SDS011;61102;51.956;5.878;2023-04-06T01:52:55;5.15;;;1.33;;
72951;SDS011;61102;51.956;5.878;2023-04-06T01:55:23;4.18;;;1.33;;
72951;SDS011;61102;51.956;5.878;2023-04-06T01:58:24;5.65;;;1.75;;
72951;SDS011;61102;51.956;5.878;2023-04-06T02:00:51;4.10;;;1.35;;
72951;SDS011;61102;51.956;5.878;2023-04-06T02:03:19;4.85;;;1.50;;
72951;SDS011;61102;51.956;5.878;2023-04-06T02:05:46;4.50;;;1.40;;
72951;SDS011;61102;51.956;5.878;2023-04-06T02:08:22;4.35;;;1.50;;
72951;SDS011;61102;51.956;5.878;2023-04-06T02:10:49;4.10;;;1.10;;
72951;SDS011;61102;51.956;5.878;2023-04-06T02:16:31;4.22;;;1.30;;
72951;SDS011;61102;51.956;5.878;2023-04-06T02:18:57;3.58;;;1.17;;
72951;SDS011;61102;51.956;5.878;2023-04-06T02:21:23;4.38;;;1.15;;
72951;SDS011;61102;51.956;5.878;2023-04-06T02:23:50;4.45;;;1.30;;
72951;SDS011;61102;51.956;5.878;2023-04-06T02:26:17;4.00;;;1.20;;
72951;SDS011;61102;51.956;5.878;2023-04-06T02:28:43;3.65;;;1.13;;
72951;SDS011;61102;51.956;5.878;2023-04-06T02:31:09;3.75;;;1.20;;
72951;SDS011;61102;51.956;5.878;2023-04-06T02:33:40;3.75;;;1.10;;
72951;SDS011;61102;51.956;5.878;2023-04-06T02:36:07;4.13;;;1.30;;
72951;SDS011;61102;51.956;5.878;2023-04-06T02:38:33;4.20;;;1.40;;
72951;SDS011;61102;51.956;5.878;2023-04-06T02:41:02;4.40;;;1.20;;
72951;SDS011;61102;51.956;5.878;2023-04-06T02:43:29;3.95;;;1.40;;
72951;SDS011;61102;51.956;5.878;2023-04-06T02:46:04;4.75;;;1.40;;
72951;SDS011;61102;51.956;5.878;2023-04-06T02:48:34;4.40;;;1.20;;
72951;SDS011;61102;51.956;5.878;2023-04-06T02:51:02;5.13;;;1.50;;
72951;SDS011;61102;51.956;5.878;2023-04-06T02:53:38;4.70;;;1.65;;
72951;SDS011;61102;51.956;5.878;2023-04-06T02:56:05;5.13;;;1.48;;
72951;SDS011;61102;51.956;5.878;2023-04-06T02:58:43;4.05;;;1.35;;
72951;SDS011;61102;51.956;5.878;2023-04-06T03:01:09;6.10;;;1.60;;
72951;SDS011;61102;51.956;5.878;2023-04-06T03:03:36;5.30;;;1.48;;
72951;SDS011;61102;51.956;5.878;2023-04-06T03:06:06;5.40;;;1.40;;
72951;SDS011;61102;51.956;5.878;2023-04-06T03:08:32;4.47;;;1.60;;
72951;SDS011;61102;51.956;5.878;2023-04-06T03:10:58;4.25;;;1.20;;
72951;SDS011;61102;51.956;5.878;2023-04-06T03:13:33;5.43;;;1.63;;
72951;SDS011;61102;51.956;5.878;2023-04-06T03:16:04;3.92;;;1.20;;
72951;SDS011;61102;51.956;5.878;2023-04-06T03:18:34;3.95;;;1.20;;
72951;SDS011;61102;51.956;5.878;2023-04-06T03:21:01;4.55;;;1.50;;
72951;SDS011;61102;51.956;5.878;2023-04-06T03:23:35;4.15;;;1.40;;
72951;SDS011;61102;51.956;5.878;2023-04-06T03:26:02;5.30;;;1.08;;
72951;SDS011;61102;51.956;5.878;2023-04-06T03:28:29;3.83;;;1.30;;
72951;SDS011;61102;51.956;5.878;2023-04-06T03:30:58;4.38;;;1.30;;
72951;SDS011;61102;51.956;5.878;2023-04-06T03:33:43;4.38;;;1.27;;
72951;SDS011;61102;51.956;5.878;2023-04-06T03:36:14;4.28;;;1.38;;
72951;SDS011;61102;51.956;5.878;2023-04-06T03:38:42;5.63;;;1.30;;
72951;SDS011;61102;51.956;5.878;2023-04-06T03:41:11;4.95;;;1.40;;
72951;SDS011;61102;51.956;5.878;2023-04-06T03:43:40;6.57;;;2.10;;
72951;SDS011;61102;51.956;5.878;2023-04-06T03:46:07;6.38;;;2.15;;
72951;SDS011;61102;51.956;5.878;2023-04-06T03:48:33;4.78;;;1.48;;
72951;SDS011;61102;51.956;5.878;2023-04-06T03:51:03;9.60;;;4.50;;
72951;SDS011;61102;51.956;5.878;2023-04-06T03:53:29;5.60;;;1.95;;
72951;SDS011;61102;51.956;5.878;2023-04-06T03:55:56;6.15;;;1.80;;
72951;SDS011;61102;51.956;5.878;2023-04-06T03:58:22;5.07;;;1.63;;
72951;SDS011;61102;51.956;5.878;2023-04-06T04:00:48;4.93;;;1.45;;
72951;SDS011;61102;51.956;5.878;2023-04-06T04:03:14;5.20;;;1.55;;
72951;SDS011;61102;51.956;5.878;2023-04-06T04:05:41;6.07;;;1.75;;
72951;SDS011;61102;51.956;5.878;2023-04-06T04:08:09;4.43;;;1.42;;
72951;SDS011;61102;51.956;5.878;2023-04-06T04:10:36;7.45;;;2.30;;
72951;SDS011;61102;51.956;5.878;2023-04-06T04:13:03;7.00;;;1.98;;
72951;SDS011;61102;51.956;5.878;2023-04-06T04:15:29;4.97;;;1.60;;
72951;SDS011;61102;51.956;5.878;2023-04-06T04:17:55;6.30;;;2.22;;
72951;SDS011;61102;51.956;5.878;2023-04-06T04:20:22;5.35;;;2.05;;
72951;SDS011;61102;51.956;5.878;2023-04-06T04:22:50;7.20;;;1.98;;
72951;SDS011;61102;51.956;5.878;2023-04-06T04:25:17;4.03;;;1.50;;
72951;SDS011;61102;51.956;5.878;2023-04-06T04:27:47;5.45;;;1.67;;
72951;SDS011;61102;51.956;5.878;2023-04-06T04:30:14;6.03;;;1.90;;
72951;SDS011;61102;51.956;5.878;2023-04-06T04:32:41;5.32;;;1.70;;
72951;SDS011;61102;51.956;5.878;2023-04-06T04:35:09;5.78;;;1.85;;
72951;SDS011;61102;51.956;5.878;2023-04-06T04:37:40;5.40;;;1.83;;
72951;SDS011;61102;51.956;5.878;2023-04-06T04:40:08;7.38;;;1.92;;
72951;SDS011;61102;51.956;5.878;2023-04-06T04:42:45;6.38;;;2.03;;
72951;SDS011;61102;51.956;5.878;2023-04-06T04:45:18;7.75;;;2.53;;
72951;SDS011;61102;51.956;5.878;2023-04-06T04:47:44;5.85;;;1.50;;
72951;SDS011;61102;51.956;5.878;2023-04-06T04:50:12;5.65;;;1.90;;
72951;SDS011;61102;51.956;5.878;2023-04-06T04:52:42;5.82;;;1.80;;
72951;SDS011;61102;51.956;5.878;2023-04-06T04:55:20;6.00;;;1.88;;
72951;SDS011;61102;51.956;5.878;2023-04-06T04:57:50;5.97;;;1.77;;
72951;SDS011;61102;51.956;5.878;2023-04-06T05:00:19;5.25;;;1.67;;
72951;SDS011;61102;51.956;5.878;2023-04-06T05:02:46;4.53;;;1.52;;
72951;SDS011;61102;51.956;5.878;2023-04-06T05:05:17;5.60;;;2.00;;
72951;SDS011;61102;51.956;5.878;2023-04-06T05:07:43;5.55;;;1.55;;
72951;SDS011;61102;51.956;5.878;2023-04-06T05:10:17;8.68;;;2.10;;
72951;SDS011;61102;51.956;5.878;2023-04-06T05:12:51;6.47;;;1.70;;
72951;SDS011;61102;51.956;5.878;2023-04-06T05:15:19;8.82;;;2.20;;
72951;SDS011;61102;51.956;5.878;2023-04-06T05:17:48;7.15;;;2.22;;
72951;SDS011;61102;51.956;5.878;2023-04-06T05:20:21;5.65;;;1.80;;
72951;SDS011;61102;51.956;5.878;2023-04-06T05:22:49;6.00;;;2.10;;
72951;SDS011;61102;51.956;5.878;2023-04-06T05:25:15;5.30;;;1.75;;
72951;SDS011;61102;51.956;5.878;2023-04-06T05:27:42;6.07;;;2.17;;
72951;SDS011;61102;51.956;5.878;2023-04-06T05:30:25;6.50;;;2.05;;
72951;SDS011;61102;51.956;5.878;2023-04-06T05:32:52;5.60;;;1.70;;
72951;SDS011;61102;51.956;5.878;2023-04-06T05:35:20;8.40;;;3.55;;
72951;SDS011;61102;51.956;5.878;2023-04-06T05:37:50;9.68;;;3.50;;
72951;SDS011;61102;51.956;5.878;2023-04-06T05:40:17;5.95;;;2.00;;
72951;SDS011;61102;51.956;5.878;2023-04-06T05:42:43;8.35;;;2.72;;
72951;SDS011;61102;51.956;5.878;2023-04-06T05:45:11;6.32;;;2.05;;
72951;SDS011;61102;51.956;5.878;2023-04-06T05:47:43;8.35;;;2.97;;
72951;SDS011;61102;51.956;5.878;2023-04-06T05:50:19;6.78;;;2.25;;
72951;SDS011;61102;51.956;5.878;2023-04-06T05:52:45;8.82;;;2.97;;
72951;SDS011;61102;51.956;5.878;2023-04-06T05:55:13;7.63;;;2.67;;
72951;SDS011;61102;51.956;5.878;2023-04-06T05:57:43;8.38;;;3.33;;
72951;SDS011;61102;51.956;5.878;2023-04-06T06:00:12;7.80;;;2.78;;
72951;SDS011;61102;51.956;5.878;2023-04-06T06:02:40;6.85;;;2.40;;
72951;SDS011;61102;51.956;5.878;2023-04-06T06:05:11;7.47;;;2.30;;
72951;SDS011;61102;51.956;5.878;2023-04-06T06:07:39;7.70;;;2.95;;
72951;SDS011;61102;51.956;5.878;2023-04-06T06:10:05;5.80;;;2.42;;
72951;SDS011;61102;51.956;5.878;2023-04-06T06:12:35;6.63;;;2.13;;
72951;SDS011;61102;51.956;5.878;2023-04-06T06:15:02;6.60;;;2.50;;
72951;SDS011;61102;51.956;5.878;2023-04-06T06:17:32;7.45;;;3.20;;
72951;SDS011;61102;51.956;5.878;2023-04-06T06:19:59;8.30;;;2.80;;
72951;SDS011;61102;51.956;5.878;2023-04-06T06:24:53;7.30;;;2.40;;
72951;SDS011;61102;51.956;5.878;2023-04-06T06:27:20;7.80;;;3.13;;
72951;SDS011;61102;51.956;5.878;2023-04-06T06:29:46;8.55;;;2.95;;
72951;SDS011;61102;51.956;5.878;2023-04-06T06:32:13;8.23;;;2.92;;
72951;SDS011;61102;51.956;5.878;2023-04-06T06:37:08;8.30;;;3.47;;
72951;SDS011;61102;51.956;5.878;2023-04-06T06:39:36;8.25;;;3.22;;
72951;SDS011;61102;51.956;5.878;2023-04-06T06:42:02;7.97;;;3.28;;
72951;SDS011;61102;51.956;5.878;2023-04-06T06:44:47;8.13;;;3.13;;
72951;SDS011;61102;51.956;5.878;2023-04-06T06:47:13;9.32;;;3.13;;
72951;SDS011;61102;51.956;5.878;2023-04-06T06:49:39;8.40;;;3.13;;
72951;SDS011;61102;51.956;5.878;2023-04-06T06:52:05;8.77;;;3.03;;
72951;SDS011;61102;51.956;5.878;2023-04-06T06:54:31;9.00;;;3.80;;
72951;SDS011;61102;51.956;5.878;2023-04-06T06:56:57;8.35;;;3.25;;
72951;SDS011;61102;51.956;5.878;2023-04-06T06:59:24;10.88;;;3.65;;
72951;SDS011;61102;51.956;5.878;2023-04-06T07:01:52;10.32;;;3.78;;
72951;SDS011;61102;51.956;5.878;2023-04-06T07:04:19;8.93;;;3.47;;
72951;SDS011;61102;51.956;5.878;2023-04-06T07:06:45;10.95;;;4.10;;
72951;SDS011;61102;51.956;5.878;2023-04-06T07:09:11;7.82;;;3.25;;
72951;SDS011;61102;51.956;5.878;2023-04-06T07:11:37;8.73;;;3.67;;
72951;SDS011;61102;51.956;5.878;2023-04-06T07:14:05;8.80;;;3.35;;
72951;SDS011;61102;51.956;5.878;2023-04-06T07:16:32;7.20;;;2.90;;
72951;SDS011;61102;51.956;5.878;2023-04-06T07:18:58;6.43;;;2.53;;
72951;SDS011;61102;51.956;5.878;2023-04-06T07:21:24;8.38;;;3.45;;
72951;SDS011;61102;51.956;5.878;2023-04-06T07:23:50;9.25;;;3.30;;
72951;SDS011;61102;51.956;5.878;2023-04-06T07:26:17;8.40;;;3.40;;
72951;SDS011;61102;51.956;5.878;2023-04-06T07:28:43;12.10;;;4.20;;
72951;SDS011;61102;51.956;5.878;2023-04-06T07:31:12;9.23;;;4.10;;
72951;SDS011;61102;51.956;5.878;2023-04-06T07:33:38;9.48;;;3.50;;
72951;SDS011;61102;51.956;5.878;2023-04-06T07:36:04;11.32;;;5.40;;
72951;SDS011;61102;51.956;5.878;2023-04-06T07:38:30;10.45;;;4.22;;
72951;SDS011;61102;51.956;5.878;2023-04-06T07:40:57;8.00;;;3.53;;
72951;SDS011;61102;51.956;5.878;2023-04-06T07:43:25;10.15;;;4.85;;
72951;SDS011;61102;51.956;5.878;2023-04-06T07:45:52;12.10;;;4.32;;
72951;SDS011;61102;51.956;5.878;2023-04-06T07:48:19;8.63;;;3.70;;
72951;SDS011;61102;51.956;5.878;2023-04-06T07:50:45;8.70;;;3.53;;
72951;SDS011;61102;51.956;5.878;2023-04-06T07:53:11;8.48;;;3.88;;
72951;SDS011;61102;51.956;5.878;2023-04-06T07:55:38;10.38;;;4.35;;
72951;SDS011;61102;51.956;5.878;2023-04-06T07:58:05;9.45;;;3.90;;
72951;SDS011;61102;51.956;5.878;2023-04-06T08:00:31;8.77;;;4.07;;
72951;SDS011;61102;51.956;5.878;2023-04-06T08:02:57;8.60;;;3.60;;
72951;SDS011;61102;51.956;5.878;2023-04-06T08:05:23;10.13;;;4.38;;
72951;SDS011;61102;51.956;5.878;2023-04-06T08:07:49;10.68;;;4.45;;
72951;SDS011;61102;51.956;5.878;2023-04-06T08:10:15;9.32;;;3.30;;
72951;SDS011;61102;51.956;5.878;2023-04-06T08:12:41;9.00;;;3.60;;
72951;SDS011;61102;51.956;5.878;2023-04-06T08:15:07;9.73;;;4.63;;
72951;SDS011;61102;51.956;5.878;2023-04-06T08:17:36;9.07;;;3.25;;
72951;SDS011;61102;51.956;5.878;2023-04-06T08:20:02;8.07;;;3.20;;
72951;SDS011;61102;51.956;5.878;2023-04-06T08:22:30;13.18;;;4.38;;
72951;SDS011;61102;51.956;5.878;2023-04-06T08:24:56;7.88;;;3.30;;
72951;SDS011;61102;51.956;5.878;2023-04-06T08:27:22;8.93;;;3.65;;
72951;SDS011;61102;51.956;5.878;2023-04-06T08:29:49;8.90;;;3.60;;
72951;SDS011;61102;51.956;5.878;2023-04-06T08:32:16;10.88;;;4.40;;
72951;SDS011;61102;51.956;5.878;2023-04-06T08:34:42;9.43;;;4.30;;
72951;SDS011;61102;51.956;5.878;2023-04-06T08:37:08;10.30;;;4.03;;
72951;SDS011;61102;51.956;5.878;2023-04-06T08:39:35;9.90;;;3.95;;
72951;SDS011;61102;51.956;5.878;2023-04-06T08:42:01;10.60;;;4.57;;
72951;SDS011;61102;51.956;5.878;2023-04-06T08:44:31;8.63;;;3.88;;
72951;SDS011;61102;51.956;5.878;2023-04-06T08:47:01;7.57;;;2.67;;
72951;SDS011;61102;51.956;5.878;2023-04-06T08:49:32;10.77;;;4.88;;
72951;SDS011;61102;51.956;5.878;2023-04-06T08:52:00;7.60;;;3.10;;
72951;SDS011;61102;51.956;5.878;2023-04-06T08:54:27;9.90;;;3.83;;
72951;SDS011;61102;51.956;5.878;2023-04-06T08:56:53;8.73;;;3.90;;
72951;SDS011;61102;51.956;5.878;2023-04-06T08:59:19;10.15;;;4.35;;
72951;SDS011;61102;51.956;5.878;2023-04-06T09:01:45;10.38;;;4.68;;
72951;SDS011;61102;51.956;5.878;2023-04-06T09:04:13;10.80;;;5.00;;
72951;SDS011;61102;51.956;5.878;2023-04-06T09:06:40;9.60;;;3.53;;
72951;SDS011;61102;51.956;5.878;2023-04-06T09:09:07;12.13;;;5.00;;
72951;SDS011;61102;51.956;5.878;2023-04-06T09:11:46;8.90;;;3.47;;
72951;SDS011;61102;51.956;5.878;2023-04-06T09:14:16;8.88;;;4.00;;
72951;SDS011;61102;51.956;5.878;2023-04-06T09:16:58;9.93;;;3.97;;
72951;SDS011;61102;51.956;5.878;2023-04-06T09:19:24;10.90;;;4.63;;
72951;SDS011;61102;51.956;5.878;2023-04-06T09:22:00;9.65;;;4.30;;
72951;SDS011;61102;51.956;5.878;2023-04-06T09:27:33;11.48;;;5.40;;
72951;SDS011;61102;51.956;5.878;2023-04-06T09:32:30;18.77;;;6.45;;
72951;SDS011;61102;51.956;5.878;2023-04-06T09:35:08;11.15;;;5.32;;
72951;SDS011;61102;51.956;5.878;2023-04-06T09:37:36;11.60;;;5.65;;
72951;SDS011;61102;51.956;5.878;2023-04-06T09:40:02;12.18;;;5.88;;
72951;SDS011;61102;51.956;5.878;2023-04-06T09:42:31;12.20;;;5.38;;
72951;SDS011;61102;51.956;5.878;2023-04-06T09:44:57;9.60;;;4.72;;
72951;SDS011;61102;51.956;5.878;2023-04-06T09:47:24;11.73;;;5.82;;
72951;SDS011;61102;51.956;5.878;2023-04-06T09:49:55;13.20;;;6.15;;
72951;SDS011;61102;51.956;5.878;2023-04-06T09:52:27;13.23;;;6.43;;
72951;SDS011;61102;51.956;5.878;2023-04-06T09:55:03;14.18;;;6.43;;
72951;SDS011;61102;51.956;5.878;2023-04-06T10:00:11;11.75;;;5.28;;
72951;SDS011;61102;51.956;5.878;2023-04-06T10:03:08;12.07;;;6.32;;
72951;SDS011;61102;51.956;5.878;2023-04-06T10:05:56;14.75;;;5.68;;
72951;SDS011;61102;51.956;5.878;2023-04-06T10:08:27;13.32;;;6.35;;
72951;SDS011;61102;51.956;5.878;2023-04-06T10:10:55;11.15;;;5.57;;
72951;SDS011;61102;51.956;5.878;2023-04-06T10:13:24;10.13;;;4.35;;
72951;SDS011;61102;51.956;5.878;2023-04-06T10:15:52;12.70;;;5.65;;
72951;SDS011;61102;51.956;5.878;2023-04-06T10:18:21;12.20;;;6.07;;
72951;SDS011;61102;51.956;5.878;2023-04-06T10:20:55;9.30;;;4.25;;
72951;SDS011;61102;51.956;5.878;2023-04-06T10:26:11;13.38;;;5.40;;
72951;SDS011;61102;51.956;5.878;2023-04-06T10:31:06;11.70;;;4.82;;
72951;SDS011;61102;51.956;5.878;2023-04-06T10:33:32;9.75;;;4.82;;
72951;SDS011;61102;51.956;5.878;2023-04-06T10:36:22;11.73;;;5.53;;
72951;SDS011;61102;51.956;5.878;2023-04-06T10:38:58;10.35;;;4.68;;
72951;SDS011;61102;51.956;5.878;2023-04-06T10:41:44;8.80;;;3.80;;
72951;SDS011;61102;51.956;5.878;2023-04-06T10:44:23;12.20;;;5.28;;
72951;SDS011;61102;51.956;5.878;2023-04-06T10:46:53;13.15;;;5.70;;
72951;SDS011;61102;51.956;5.878;2023-04-06T10:49:20;12.70;;;6.20;;
72951;SDS011;61102;51.956;5.878;2023-04-06T10:51:52;12.68;;;5.40;;
72951;SDS011;61102;51.956;5.878;2023-04-06T10:54:21;9.95;;;4.25;;
72951;SDS011;61102;51.956;5.878;2023-04-06T10:56:50;8.55;;;3.33;;
72951;SDS011;61102;51.956;5.878;2023-04-06T10:59:19;9.55;;;3.78;;
72951;SDS011;61102;51.956;5.878;2023-04-06T11:01:48;9.23;;;3.75;;
72951;SDS011;61102;51.956;5.878;2023-04-06T11:04:17;9.75;;;4.70;;
72951;SDS011;61102;51.956;5.878;2023-04-06T11:06:47;7.63;;;3.10;;
72951;SDS011;61102;51.956;5.878;2023-04-06T11:09:24;10.98;;;4.55;;
72951;SDS011;61102;51.956;5.878;2023-04-06T11:11:55;9.43;;;3.88;;
72951;SDS011;61102;51.956;5.878;2023-04-06T11:16:50;9.02;;;3.78;;
72951;SDS011;61102;51.956;5.878;2023-04-06T11:21:43;9.98;;;4.70;;
72951;SDS011;61102;51.956;5.878;2023-04-06T11:24:14;11.82;;;4.20;;
72951;SDS011;61102;51.956;5.878;2023-04-06T11:26:44;11.00;;;5.03;;
72951;SDS011;61102;51.956;5.878;2023-04-06T11:29:20;11.65;;;3.83;;
72951;SDS011;61102;51.956;5.878;2023-04-06T11:31:51;7.75;;;3.58;;
72951;SDS011;61102;51.956;5.878;2023-04-06T11:34:23;9.15;;;4.30;;
72951;SDS011;61102;51.956;5.878;2023-04-06T11:36:57;9.63;;;4.47;;
72951;SDS011;61102;51.956;5.878;2023-04-06T11:39:29;9.02;;;4.07;;
72951;SDS011;61102;51.956;5.878;2023-04-06T11:41:59;7.82;;;3.10;;
72951;SDS011;61102;51.956;5.878;2023-04-06T11:44:42;8.48;;;3.90;;
72951;SDS011;61102;51.956;5.878;2023-04-06T11:47:14;9.95;;;4.90;;
72951;SDS011;61102;51.956;5.878;2023-04-06T11:49:42;9.65;;;4.47;;
72951;SDS011;61102;51.956;5.878;2023-04-06T11:52:28;9.38;;;3.90;;
72951;SDS011;61102;51.956;5.878;2023-04-06T11:54:55;8.55;;;3.60;;
72951;SDS011;61102;51.956;5.878;2023-04-06T11:57:24;7.68;;;3.03;;
72951;SDS011;61102;51.956;5.878;2023-04-06T11:59:52;7.40;;;3.15;;
72951;SDS011;61102;51.956;5.878;2023-04-06T12:02:18;9.35;;;4.15;;
72951;SDS011;61102;51.956;5.878;2023-04-06T12:04:45;8.48;;;3.40;;
72951;SDS011;61102;51.956;5.878;2023-04-06T12:07:11;8.40;;;3.28;;
72951;SDS011;61102;51.956;5.878;2023-04-06T12:09:37;7.95;;;3.22;;
72951;SDS011;61102;51.956;5.878;2023-04-06T12:12:04;8.48;;;3.45;;
72951;SDS011;61102;51.956;5.878;2023-04-06T12:14:30;7.50;;;3.00;;
72951;SDS011;61102;51.956;5.878;2023-04-06T12:16:57;7.30;;;2.70;;
72951;SDS011;61102;51.956;5.878;2023-04-06T12:19:23;9.35;;;3.53;;
72951;SDS011;61102;51.956;5.878;2023-04-06T12:21:54;8.60;;;3.53;;
72951;SDS011;61102;51.956;5.878;2023-04-06T12:24:21;9.45;;;3.97;;
72951;SDS011;61102;51.956;5.878;2023-04-06T12:26:47;8.40;;;3.53;;
72951;SDS011;61102;51.956;5.878;2023-04-06T12:29:13;8.38;;;3.65;;
72951;SDS011;61102;51.956;5.878;2023-04-06T12:31:39;7.72;;;3.22;;
72951;SDS011;61102;51.956;5.878;2023-04-06T12:34:06;10.05;;;3.20;;
72951;SDS011;61102;51.956;5.878;2023-04-06T12:36:32;7.90;;;3.13;;
72951;SDS011;61102;51.956;5.878;2023-04-06T12:38:59;7.20;;;2.78;;
72951;SDS011;61102;51.956;5.878;2023-04-06T12:41:29;7.90;;;3.00;;
72951;SDS011;61102;51.956;5.878;2023-04-06T12:43:55;8.10;;;3.00;;
72951;SDS011;61102;51.956;5.878;2023-04-06T12:46:21;6.95;;;2.65;;
72951;SDS011;61102;51.956;5.878;2023-04-06T12:48:48;6.43;;;2.22;;
72951;SDS011;61102;51.956;5.878;2023-04-06T12:51:14;6.45;;;2.50;;
72951;SDS011;61102;51.956;5.878;2023-04-06T12:53:41;6.20;;;2.53;;
72951;SDS011;61102;51.956;5.878;2023-04-06T12:56:15;6.55;;;2.65;;
72951;SDS011;61102;51.956;5.878;2023-04-06T12:58:43;7.45;;;2.42;;
72951;SDS011;61102;51.956;5.878;2023-04-06T13:01:09;7.57;;;2.50;;
72951;SDS011;61102;51.956;5.878;2023-04-06T13:03:41;7.30;;;2.92;;
72951;SDS011;61102;51.956;5.878;2023-04-06T13:06:07;6.70;;;2.60;;
72951;SDS011;61102;51.956;5.878;2023-04-06T13:08:37;6.28;;;2.30;;
72951;SDS011;61102;51.956;5.878;2023-04-06T13:11:04;7.10;;;2.70;;
72951;SDS011;61102;51.956;5.878;2023-04-06T13:13:30;5.60;;;1.90;;
72951;SDS011;61102;51.956;5.878;2023-04-06T13:16:04;7.82;;;2.78;;
72951;SDS011;61102;51.956;5.878;2023-04-06T13:18:34;7.00;;;2.70;;
72951;SDS011;61102;51.956;5.878;2023-04-06T13:21:04;7.22;;;2.63;;
72951;SDS011;61102;51.956;5.878;2023-04-06T13:23:31;6.78;;;2.58;;
72951;SDS011;61102;51.956;5.878;2023-04-06T13:26:06;7.50;;;3.03;;
72951;SDS011;61102;51.956;5.878;2023-04-06T13:28:34;9.88;;;3.05;;
72951;SDS011;61102;51.956;5.878;2023-04-06T13:31:02;6.90;;;2.28;;
72951;SDS011;61102;51.956;5.878;2023-04-06T13:33:29;7.20;;;3.10;;
72951;SDS011;61102;51.956;5.878;2023-04-06T13:35:55;8.00;;;2.90;;
72951;SDS011;61102;51.956;5.878;2023-04-06T13:38:22;8.70;;;3.25;;
72951;SDS011;61102;51.956;5.878;2023-04-06T13:40:49;7.18;;;3.20;;
72951;SDS011;61102;51.956;5.878;2023-04-06T13:43:16;7.78;;;2.78;;
72951;SDS011;61102;51.956;5.878;2023-04-06T13:45:49;8.82;;;3.40;;
72951;SDS011;61102;51.956;5.878;2023-04-06T13:48:20;6.75;;;2.72;;
72951;SDS011;61102;51.956;5.878;2023-04-06T13:50:46;7.97;;;2.65;;
72951;SDS011;61102;51.956;5.878;2023-04-06T13:53:13;8.88;;;3.40;;
72951;SDS011;61102;51.956;5.878;2023-04-06T13:55:39;8.50;;;3.03;;
72951;SDS011;61102;51.956;5.878;2023-04-06T13:58:05;7.78;;;2.90;;
72951;SDS011;61102;51.956;5.878;2023-04-06T14:00:31;7.65;;;2.70;;
72951;SDS011;61102;51.956;5.878;2023-04-06T14:02:57;7.00;;;2.85;;
72951;SDS011;61102;51.956;5.878;2023-04-06T14:05:23;9.00;;;3.47;;
72951;SDS011;61102;51.956;5.878;2023-04-06T14:07:50;8.00;;;3.40;;
72951;SDS011;61102;51.956;5.878;2023-04-06T14:10:16;9.02;;;3.90;;
72951;SDS011;61102;51.956;5.878;2023-04-06T14:12:42;8.43;;;3.90;;
72951;SDS011;61102;51.956;5.878;2023-04-06T14:15:12;10.35;;;4.03;;
72951;SDS011;61102;51.956;5.878;2023-04-06T14:17:38;7.97;;;2.88;;
72951;SDS011;61102;51.956;5.878;2023-04-06T14:20:05;7.93;;;2.80;;
72951;SDS011;61102;51.956;5.878;2023-04-06T14:22:32;8.73;;;3.30;;
72951;SDS011;61102;51.956;5.878;2023-04-06T14:24:58;9.07;;;3.78;;
72951;SDS011;61102;51.956;5.878;2023-04-06T14:27:24;8.38;;;3.83;;
72951;SDS011;61102;51.956;5.878;2023-04-06T14:29:50;7.93;;;3.33;;
72951;SDS011;61102;51.956;5.878;2023-04-06T14:37:11;9.82;;;4.22;;
72951;SDS011;61102;51.956;5.878;2023-04-06T14:39:37;8.20;;;3.20;;
72951;SDS011;61102;51.956;5.878;2023-04-06T14:42:03;8.73;;;3.60;;
72951;SDS011;61102;51.956;5.878;2023-04-06T14:44:29;8.45;;;3.30;;
72951;SDS011;61102;51.956;5.878;2023-04-06T14:46:58;11.20;;;4.60;;
72951;SDS011;61102;51.956;5.878;2023-04-06T14:49:24;8.52;;;4.10;;
72951;SDS011;61102;51.956;5.878;2023-04-06T14:51:50;9.27;;;4.10;;
72951;SDS011;61102;51.956;5.878;2023-04-06T14:54:17;9.07;;;4.43;;
72951;SDS011;61102;51.956;5.878;2023-04-06T14:56:43;10.55;;;3.47;;
72951;SDS011;61102;51.956;5.878;2023-04-06T14:59:12;9.07;;;3.78;;
72951;SDS011;61102;51.956;5.878;2023-04-06T15:01:38;8.90;;;3.53;;
72951;SDS011;61102;51.956;5.878;2023-04-06T15:04:04;8.88;;;3.97;;
72951;SDS011;61102;51.956;5.878;2023-04-06T15:06:31;9.80;;;4.18;;
72951;SDS011;61102;51.956;5.878;2023-04-06T15:08:57;8.90;;;4.13;;
72951;SDS011;61102;51.956;5.878;2023-04-06T15:11:23;9.60;;;4.00;;
72951;SDS011;61102;51.956;5.878;2023-04-06T15:13:49;8.18;;;3.40;;
72951;SDS011;61102;51.956;5.878;2023-04-06T15:16:16;8.00;;;3.33;;
72951;SDS011;61102;51.956;5.878;2023-04-06T15:18:42;9.25;;;3.60;;
72951;SDS011;61102;51.956;5.878;2023-04-06T15:21:08;8.85;;;3.40;;
72951;SDS011;61102;51.956;5.878;2023-04-06T15:23:34;9.80;;;3.75;;
72951;SDS011;61102;51.956;5.878;2023-04-06T15:26:00;6.88;;;2.97;;